Springvale, Maine
Current Conditions -  °F | °C
As of 11:35 AM on Friday 21 Nov 2014 (Local Time) from KSFM Reporting Station
Few Clouds Few Clouds  
Wind Chill: 19°   Ceiling: Unl
Heat Index: 30°   Visibility: 10mi
Dew Point:   Wind: 15mph
Humidity: 37%   Direction: 320°NW
Pressure: 30.06"   Gusts: 25mph
Location:  43.47°N, 70.8°W
Report Text: KSFM 211635Z AUTO 32013G22KT 10SM FEW045 M01/M14 A3006 RMK AO1
Loading
Personal Weather Stations






























Interactive Weather Map New forecast layout! Learn more

10-Day Weather Forecast

Advertisements
Track Severe Weather on mobile